sensor_id;sensor_type;location;lat;lon;timestamp;temperature;humidity
3921;DHT22;1975;49.356;6.816;2022-09-12T00:00:44;18.40;98.30
3921;DHT22;1975;49.356;6.816;2022-09-12T00:03:09;18.40;98.30
3921;DHT22;1975;49.356;6.816;2022-09-12T00:05:41;18.30;98.30
3921;DHT22;1975;49.356;6.816;2022-09-12T00:08:07;18.30;98.20
3921;DHT22;1975;49.356;6.816;2022-09-12T00:10:35;18.30;98.20
3921;DHT22;1975;49.356;6.816;2022-09-12T00:13:01;18.30;98.20
3921;DHT22;1975;49.356;6.816;2022-09-12T00:15:27;18.30;98.20
3921;DHT22;1975;49.356;6.816;2022-09-12T00:17:52;18.30;98.20
3921;DHT22;1975;49.356;6.816;2022-09-12T00:20:17;18.30;98.20
3921;DHT22;1975;49.356;6.816;2022-09-12T00:22:43;18.30;98.20
3921;DHT22;1975;49.356;6.816;2022-09-12T00:25:08;18.30;98.20
3921;DHT22;1975;49.356;6.816;2022-09-12T00:27:34;18.30;98.10
3921;DHT22;1975;49.356;6.816;2022-09-12T00:29:59;18.20;98.10
3921;DHT22;1975;49.356;6.816;2022-09-12T00:32:25;18.20;98.10
3921;DHT22;1975;49.356;6.816;2022-09-12T00:34:50;18.20;98.20
3921;DHT22;1975;49.356;6.816;2022-09-12T00:37:16;18.20;98.10
3921;DHT22;1975;49.356;6.816;2022-09-12T00:39:41;18.20;98.10
3921;DHT22;1975;49.356;6.816;2022-09-12T00:42:08;18.20;98.10
3921;DHT22;1975;49.356;6.816;2022-09-12T00:47:09;18.20;98.10
3921;DHT22;1975;49.356;6.816;2022-09-12T00:52:06;18.10;98.00
3921;DHT22;1975;49.356;6.816;2022-09-12T00:54:33;18.10;98.00
3921;DHT22;1975;49.356;6.816;2022-09-12T00:57:00;18.10;98.00
3921;DHT22;1975;49.356;6.816;2022-09-12T00:59:30;18.10;98.00
3921;DHT22;1975;49.356;6.816;2022-09-12T01:01:56;18.10;98.00
3921;DHT22;1975;49.356;6.816;2022-09-12T01:04:22;18.10;98.00
3921;DHT22;1975;49.356;6.816;2022-09-12T01:06:49;18.10;98.00
3921;DHT22;1975;49.356;6.816;2022-09-12T01:09:18;18.00;97.90
3921;DHT22;1975;49.356;6.816;2022-09-12T01:11:43;18.00;97.90
3921;DHT22;1975;49.356;6.816;2022-09-12T01:14:11;18.00;97.90
3921;DHT22;1975;49.356;6.816;2022-09-12T01:16:37;18.00;97.90
3921;DHT22;1975;49.356;6.816;2022-09-12T01:27:16;18.00;98.20
3921;DHT22;1975;49.356;6.816;2022-09-12T01:29:56;18.00;97.90
3921;DHT22;1975;49.356;6.816;2022-09-12T01:37:42;17.90;98.10
3921;DHT22;1975;49.356;6.816;2022-09-12T01:40:21;17.90;97.80
3921;DHT22;1975;49.356;6.816;2022-09-12T01:42:52;17.90;97.80
3921;DHT22;1975;49.356;6.816;2022-09-12T01:48:07;17.90;97.80
3921;DHT22;1975;49.356;6.816;2022-09-12T01:50:37;17.90;97.80
3921;DHT22;1975;49.356;6.816;2022-09-12T01:53:24;17.80;97.70
3921;DHT22;1975;49.356;6.816;2022-09-12T01:55:54;17.90;97.70
3921;DHT22;1975;49.356;6.816;2022-09-12T01:58:20;17.80;97.70
3921;DHT22;1975;49.356;6.816;2022-09-12T02:00:48;17.80;97.70
3921;DHT22;1975;49.356;6.816;2022-09-12T02:03:17;17.80;97.70
3921;DHT22;1975;49.356;6.816;2022-09-12T02:05:46;17.80;97.70
3921;DHT22;1975;49.356;6.816;2022-09-12T02:08:17;17.80;97.70
3921;DHT22;1975;49.356;6.816;2022-09-12T02:13:21;17.80;97.70
3921;DHT22;1975;49.356;6.816;2022-09-12T02:15:50;17.80;97.70
3921;DHT22;1975;49.356;6.816;2022-09-12T02:18:16;17.70;97.60
3921;DHT22;1975;49.356;6.816;2022-09-12T02:20:42;17.80;97.60
3921;DHT22;1975;49.356;6.816;2022-09-12T02:23:10;17.70;97.60
3921;DHT22;1975;49.356;6.816;2022-09-12T02:25:37;17.70;97.60
3921;DHT22;1975;49.356;6.816;2022-09-12T02:28:05;17.70;97.60
3921;DHT22;1975;49.356;6.816;2022-09-12T02:30:35;17.70;97.60
3921;DHT22;1975;49.356;6.816;2022-09-12T02:33:22;17.70;97.60
3921;DHT22;1975;49.356;6.816;2022-09-12T02:35:53;17.70;97.60
3921;DHT22;1975;49.356;6.816;2022-09-12T02:38:36;17.70;97.60
3921;DHT22;1975;49.356;6.816;2022-09-12T02:41:04;17.60;97.50
3921;DHT22;1975;49.356;6.816;2022-09-12T02:43:30;17.60;97.60
3921;DHT22;1975;49.356;6.816;2022-09-12T02:45:55;17.60;97.50
3921;DHT22;1975;49.356;6.816;2022-09-12T02:48:22;17.60;97.50
3921;DHT22;1975;49.356;6.816;2022-09-12T02:50:50;17.60;97.50
3921;DHT22;1975;49.356;6.816;2022-09-12T02:53:16;17.60;97.50
3921;DHT22;1975;49.356;6.816;2022-09-12T02:55:42;17.60;97.50
3921;DHT22;1975;49.356;6.816;2022-09-12T02:58:09;17.60;97.50
3921;DHT22;1975;49.356;6.816;2022-09-12T03:00:37;17.60;97.50
3921;DHT22;1975;49.356;6.816;2022-09-12T03:06:12;17.50;97.60
3921;DHT22;1975;49.356;6.816;2022-09-12T03:11:55;17.50;97.40
3921;DHT22;1975;49.356;6.816;2022-09-12T03:17:02;17.50;97.40
3921;DHT22;1975;49.356;6.816;2022-09-12T03:22:18;17.50;97.40
3921;DHT22;1975;49.356;6.816;2022-09-12T03:25:05;17.50;97.40
3921;DHT22;1975;49.356;6.816;2022-09-12T03:27:35;17.40;97.40
3921;DHT22;1975;49.356;6.816;2022-09-12T03:30:04;17.40;97.40
3921;DHT22;1975;49.356;6.816;2022-09-12T03:35:25;17.40;97.40
3921;DHT22;1975;49.356;6.816;2022-09-12T03:37:50;17.40;97.30
3921;DHT22;1975;49.356;6.816;2022-09-12T03:40:16;17.40;97.40
3921;DHT22;1975;49.356;6.816;2022-09-12T03:42:42;17.40;97.30
3921;DHT22;1975;49.356;6.816;2022-09-12T03:45:07;17.30;97.30
3921;DHT22;1975;49.356;6.816;2022-09-12T03:47:33;17.30;97.30
3921;DHT22;1975;49.356;6.816;2022-09-12T03:49:59;17.30;97.30
3921;DHT22;1975;49.356;6.816;2022-09-12T03:52:24;17.30;97.30
3921;DHT22;1975;49.356;6.816;2022-09-12T03:54:50;17.30;97.30
3921;DHT22;1975;49.356;6.816;2022-09-12T03:57:15;17.30;97.30
3921;DHT22;1975;49.356;6.816;2022-09-12T03:59:41;17.30;97.30
3921;DHT22;1975;49.356;6.816;2022-09-12T04:02:06;17.30;97.20
3921;DHT22;1975;49.356;6.816;2022-09-12T04:04:34;17.30;97.20
3921;DHT22;1975;49.356;6.816;2022-09-12T04:06:59;17.30;97.20
3921;DHT22;1975;49.356;6.816;2022-09-12T04:09:24;17.20;97.20
3921;DHT22;1975;49.356;6.816;2022-09-12T04:11:50;17.20;97.20
3921;DHT22;1975;49.356;6.816;2022-09-12T04:14:15;17.20;97.20
3921;DHT22;1975;49.356;6.816;2022-09-12T04:16:41;17.20;97.20
3921;DHT22;1975;49.356;6.816;2022-09-12T04:19:06;17.20;97.20
3921;DHT22;1975;49.356;6.816;2022-09-12T04:21:32;17.20;97.20
3921;DHT22;1975;49.356;6.816;2022-09-12T04:23:58;17.20;97.20
3921;DHT22;1975;49.356;6.816;2022-09-12T04:26:23;17.10;97.20
3921;DHT22;1975;49.356;6.816;2022-09-12T04:28:51;17.20;97.20
3921;DHT22;1975;49.356;6.816;2022-09-12T04:31:18;17.10;97.20
3921;DHT22;1975;49.356;6.816;2022-09-12T04:33:45;17.10;97.10
3921;DHT22;1975;49.356;6.816;2022-09-12T04:36:14;17.10;97.10
3921;DHT22;1975;49.356;6.816;2022-09-12T04:38:41;17.10;97.10
3921;DHT22;1975;49.356;6.816;2022-09-12T04:43:35;17.10;97.10
3921;DHT22;1975;49.356;6.816;2022-09-12T04:46:04;17.10;97.10
3921;DHT22;1975;49.356;6.816;2022-09-12T04:48:30;17.10;97.10
3921;DHT22;1975;49.356;6.816;2022-09-12T04:50:55;17.00;97.10
3921;DHT22;1975;49.356;6.816;2022-09-12T04:53:30;17.00;97.10
3921;DHT22;1975;49.356;6.816;2022-09-12T04:56:00;17.00;97.10
3921;DHT22;1975;49.356;6.816;2022-09-12T04:58:25;17.00;97.10
3921;DHT22;1975;49.356;6.816;2022-09-12T05:00:51;17.00;97.10
3921;DHT22;1975;49.356;6.816;2022-09-12T05:03:16;17.00;97.00
3921;DHT22;1975;49.356;6.816;2022-09-12T05:05:42;17.00;97.10
3921;DHT22;1975;49.356;6.816;2022-09-12T05:08:07;17.00;97.10
3921;DHT22;1975;49.356;6.816;2022-09-12T05:10:33;17.00;97.00
3921;DHT22;1975;49.356;6.816;2022-09-12T05:12:58;17.00;97.10
3921;DHT22;1975;49.356;6.816;2022-09-12T05:15:24;16.90;97.00
3921;DHT22;1975;49.356;6.816;2022-09-12T05:17:49;16.90;97.00
3921;DHT22;1975;49.356;6.816;2022-09-12T05:20:15;16.90;97.00
3921;DHT22;1975;49.356;6.816;2022-09-12T05:22:41;16.90;97.00
3921;DHT22;1975;49.356;6.816;2022-09-12T05:25:07;16.90;97.00
3921;DHT22;1975;49.356;6.816;2022-09-12T05:27:33;16.90;97.00
3921;DHT22;1975;49.356;6.816;2022-09-12T05:29:58;16.90;97.00
3921;DHT22;1975;49.356;6.816;2022-09-12T05:32:23;16.90;97.00
3921;DHT22;1975;49.356;6.816;2022-09-12T05:34:49;16.90;97.00
3921;DHT22;1975;49.356;6.816;2022-09-12T05:37:15;16.90;97.00
3921;DHT22;1975;49.356;6.816;2022-09-12T05:39:40;16.90;97.00
3921;DHT22;1975;49.356;6.816;2022-09-12T05:42:06;16.90;97.00
3921;DHT22;1975;49.356;6.816;2022-09-12T05:44:31;16.90;97.00
3921;DHT22;1975;49.356;6.816;2022-09-12T05:46:57;16.90;97.10
3921;DHT22;1975;49.356;6.816;2022-09-12T05:49:22;16.90;97.00
3921;DHT22;1975;49.356;6.816;2022-09-12T05:51:48;16.90;97.10
3921;DHT22;1975;49.356;6.816;2022-09-12T05:54:15;16.90;97.10
3921;DHT22;1975;49.356;6.816;2022-09-12T05:56:42;16.90;97.00
3921;DHT22;1975;49.356;6.816;2022-09-12T05:59:12;16.90;97.10
3921;DHT22;1975;49.356;6.816;2022-09-12T06:01:38;16.80;97.10
3921;DHT22;1975;49.356;6.816;2022-09-12T06:04:04;16.80;97.10
3921;DHT22;1975;49.356;6.816;2022-09-12T06:06:31;16.80;97.10
3921;DHT22;1975;49.356;6.816;2022-09-12T06:08:58;16.80;97.10
3921;DHT22;1975;49.356;6.816;2022-09-12T06:11:25;16.80;97.10
3921;DHT22;1975;49.356;6.816;2022-09-12T06:13:51;16.80;97.10
3921;DHT22;1975;49.356;6.816;2022-09-12T06:18:46;16.80;97.10
3921;DHT22;1975;49.356;6.816;2022-09-12T06:21:12;16.80;97.20
3921;DHT22;1975;49.356;6.816;2022-09-12T06:23:38;16.80;97.20
3921;DHT22;1975;49.356;6.816;2022-09-12T06:26:04;16.80;97.20
3921;DHT22;1975;49.356;6.816;2022-09-12T06:28:30;16.80;97.20
3921;DHT22;1975;49.356;6.816;2022-09-12T06:31:03;16.80;97.20
3921;DHT22;1975;49.356;6.816;2022-09-12T06:33:29;16.70;97.10
3921;DHT22;1975;49.356;6.816;2022-09-12T06:36:00;16.80;97.20
3921;DHT22;1975;49.356;6.816;2022-09-12T06:38:26;16.80;97.20
3921;DHT22;1975;49.356;6.816;2022-09-12T06:40:51;16.80;97.20
3921;DHT22;1975;49.356;6.816;2022-09-12T06:43:18;16.80;97.20
3921;DHT22;1975;49.356;6.816;2022-09-12T06:45:48;16.80;97.20
3921;DHT22;1975;49.356;6.816;2022-09-12T06:48:13;16.80;97.20
3921;DHT22;1975;49.356;6.816;2022-09-12T06:50:39;16.80;97.30
3921;DHT22;1975;49.356;6.816;2022-09-12T06:53:04;16.80;97.30
3921;DHT22;1975;49.356;6.816;2022-09-12T06:55:30;16.80;97.30
3921;DHT22;1975;49.356;6.816;2022-09-12T06:57:55;16.80;97.30
3921;DHT22;1975;49.356;6.816;2022-09-12T07:00:20;16.80;97.40
3921;DHT22;1975;49.356;6.816;2022-09-12T07:02:46;16.80;97.40
3921;DHT22;1975;49.356;6.816;2022-09-12T07:05:11;16.80;97.50
3921;DHT22;1975;49.356;6.816;2022-09-12T07:07:38;16.80;97.60
3921;DHT22;1975;49.356;6.816;2022-09-12T07:10:03;16.80;97.60
3921;DHT22;1975;49.356;6.816;2022-09-12T07:12:30;16.80;97.60
3921;DHT22;1975;49.356;6.816;2022-09-12T07:14:56;16.80;97.60
3921;DHT22;1975;49.356;6.816;2022-09-12T07:17:21;16.80;97.60
3921;DHT22;1975;49.356;6.816;2022-09-12T07:19:47;16.80;97.60
3921;DHT22;1975;49.356;6.816;2022-09-12T07:22:12;16.80;97.80
3921;DHT22;1975;49.356;6.816;2022-09-12T07:24:38;16.80;97.90
3921;DHT22;1975;49.356;6.816;2022-09-12T07:27:04;16.90;98.00
3921;DHT22;1975;49.356;6.816;2022-09-12T07:29:29;16.90;98.10
3921;DHT22;1975;49.356;6.816;2022-09-12T07:31:55;16.90;98.10
3921;DHT22;1975;49.356;6.816;2022-09-12T07:34:20;16.90;98.20
3921;DHT22;1975;49.356;6.816;2022-09-12T07:36:46;16.80;98.20
3921;DHT22;1975;49.356;6.816;2022-09-12T07:39:11;16.90;98.30
3921;DHT22;1975;49.356;6.816;2022-09-12T07:41:36;16.90;98.40
3921;DHT22;1975;49.356;6.816;2022-09-12T07:44:02;16.80;98.40
3921;DHT22;1975;49.356;6.816;2022-09-12T07:46:28;16.90;98.90
3921;DHT22;1975;49.356;6.816;2022-09-12T07:48:55;16.90;99.20
3921;DHT22;1975;49.356;6.816;2022-09-12T07:51:20;16.90;99.20
3921;DHT22;1975;49.356;6.816;2022-09-12T07:53:46;16.90;99.30
3921;DHT22;1975;49.356;6.816;2022-09-12T07:56:13;16.90;99.30
3921;DHT22;1975;49.356;6.816;2022-09-12T07:58:39;16.90;99.30
3921;DHT22;1975;49.356;6.816;2022-09-12T08:01:08;16.90;99.30
3921;DHT22;1975;49.356;6.816;2022-09-12T08:03:34;17.00;99.40
3921;DHT22;1975;49.356;6.816;2022-09-12T08:06:07;17.00;99.40
3921;DHT22;1975;49.356;6.816;2022-09-12T08:08:33;16.90;99.40
3921;DHT22;1975;49.356;6.816;2022-09-12T08:10:59;17.00;99.50
3921;DHT22;1975;49.356;6.816;2022-09-12T08:13:26;17.00;99.50
3921;DHT22;1975;49.356;6.816;2022-09-12T08:15:55;17.00;99.60
3921;DHT22;1975;49.356;6.816;2022-09-12T08:18:21;17.00;99.60
3921;DHT22;1975;49.356;6.816;2022-09-12T08:20:46;17.00;99.70
3921;DHT22;1975;49.356;6.816;2022-09-12T08:23:11;17.00;99.80
3921;DHT22;1975;49.356;6.816;2022-09-12T08:25:37;17.10;99.80
3921;DHT22;1975;49.356;6.816;2022-09-12T08:28:02;17.10;99.80
3921;DHT22;1975;49.356;6.816;2022-09-12T08:30:28;17.10;99.80
3921;DHT22;1975;49.356;6.816;2022-09-12T08:32:53;17.10;99.90
3921;DHT22;1975;49.356;6.816;2022-09-12T08:35:19;17.10;99.90
3921;DHT22;1975;49.356;6.816;2022-09-12T08:37:44;17.20;99.90
3921;DHT22;1975;49.356;6.816;2022-09-12T08:40:13;17.20;99.90
3921;DHT22;1975;49.356;6.816;2022-09-12T08:42:46;17.20;99.90
3921;DHT22;1975;49.356;6.816;2022-09-12T08:45:22;17.20;99.90
3921;DHT22;1975;49.356;6.816;2022-09-12T08:47:48;17.20;99.90
3921;DHT22;1975;49.356;6.816;2022-09-12T08:50:18;17.20;99.90
3921;DHT22;1975;49.356;6.816;2022-09-12T08:52:47;17.20;99.90
3921;DHT22;1975;49.356;6.816;2022-09-12T08:57:46;17.30;99.90
3921;DHT22;1975;49.356;6.816;2022-09-12T09:00:12;17.30;99.90
3921;DHT22;1975;49.356;6.816;2022-09-12T09:02:43;17.30;99.90
3921;DHT22;1975;49.356;6.816;2022-09-12T09:05:24;17.30;99.90
3921;DHT22;1975;49.356;6.816;2022-09-12T09:10:32;17.40;99.90
3921;DHT22;1975;49.356;6.816;2022-09-12T09:18:28;17.40;99.90
3921;DHT22;1975;49.356;6.816;2022-09-12T09:23:21;17.40;99.90
3921;DHT22;1975;49.356;6.816;2022-09-12T09:25:50;17.50;99.90
3921;DHT22;1975;49.356;6.816;2022-09-12T09:28:25;17.50;99.90
3921;DHT22;1975;49.356;6.816;2022-09-12T09:30:55;17.50;99.90
3921;DHT22;1975;49.356;6.816;2022-09-12T09:33:22;17.50;99.90
3921;DHT22;1975;49.356;6.816;2022-09-12T09:38:49;17.50;99.90
3921;DHT22;1975;49.356;6.816;2022-09-12T09:43:46;17.60;99.90
3921;DHT22;1975;49.356;6.816;2022-09-12T09:46:12;17.60;99.90
3921;DHT22;1975;49.356;6.816;2022-09-12T09:48:43;17.60;99.90
3921;DHT22;1975;49.356;6.816;2022-09-12T09:51:10;17.60;99.90
3921;DHT22;1975;49.356;6.816;2022-09-12T09:53:44;17.70;99.90
3921;DHT22;1975;49.356;6.816;2022-09-12T09:56:13;17.70;99.90
3921;DHT22;1975;49.356;6.816;2022-09-12T09:58:39;17.70;99.90
3921;DHT22;1975;49.356;6.816;2022-09-12T10:01:11;17.70;99.90
3921;DHT22;1975;49.356;6.816;2022-09-12T10:03:38;17.70;99.90
3921;DHT22;1975;49.356;6.816;2022-09-12T10:06:20;17.70;99.90
3921;DHT22;1975;49.356;6.816;2022-09-12T10:08:46;17.70;99.90
3921;DHT22;1975;49.356;6.816;2022-09-12T10:11:19;17.80;99.90
3921;DHT22;1975;49.356;6.816;2022-09-12T10:18:47;17.80;99.90
3921;DHT22;1975;49.356;6.816;2022-09-12T10:21:15;17.80;99.90
3921;DHT22;1975;49.356;6.816;2022-09-12T10:23:42;17.80;99.90
3921;DHT22;1975;49.356;6.816;2022-09-12T10:26:09;17.90;99.90
3921;DHT22;1975;49.356;6.816;2022-09-12T10:28:36;17.90;99.90
3921;DHT22;1975;49.356;6.816;2022-09-12T10:31:03;17.90;99.90
3921;DHT22;1975;49.356;6.816;2022-09-12T10:33:29;17.90;99.90
3921;DHT22;1975;49.356;6.816;2022-09-12T10:35:58;17.90;99.90
3921;DHT22;1975;49.356;6.816;2022-09-12T10:38:25;17.90;99.90
3921;DHT22;1975;49.356;6.816;2022-09-12T10:40:55;17.90;99.90
3921;DHT22;1975;49.356;6.816;2022-09-12T10:45:48;18.00;99.90
3921;DHT22;1975;49.356;6.816;2022-09-12T10:50:45;18.00;99.90
3921;DHT22;1975;49.356;6.816;2022-09-12T10:53:21;18.00;99.90
3921;DHT22;1975;49.356;6.816;2022-09-12T11:00:46;18.00;99.90
3921;DHT22;1975;49.356;6.816;2022-09-12T11:03:15;18.00;99.90
3921;DHT22;1975;49.356;6.816;2022-09-12T11:05:44;18.00;99.90
3921;DHT22;1975;49.356;6.816;2022-09-12T11:08:30;18.00;99.90
3921;DHT22;1975;49.356;6.816;2022-09-12T11:16:43;18.10;99.90
3921;DHT22;1975;49.356;6.816;2022-09-12T11:39:50;18.20;99.90
3921;DHT22;1975;49.356;6.816;2022-09-12T11:42:28;18.20;99.90
3921;DHT22;1975;49.356;6.816;2022-09-12T11:45:31;18.10;99.90
3921;DHT22;1975;49.356;6.816;2022-09-12T11:47:48;18.20;99.90
3921;DHT22;1975;49.356;6.816;2022-09-12T11:50:20;18.20;99.90
3921;DHT22;1975;49.356;6.816;2022-09-12T11:52:47;18.20;99.90
3921;DHT22;1975;49.356;6.816;2022-09-12T11:55:18;18.20;99.90
3921;DHT22;1975;49.356;6.816;2022-09-12T11:57:57;18.20;99.90
3921;DHT22;1975;49.356;6.816;2022-09-12T12:00:36;18.20;99.90
3921;DHT22;1975;49.356;6.816;2022-09-12T12:07:57;18.20;99.90
3921;DHT22;1975;49.356;6.816;2022-09-12T12:12:49;18.30;99.90
3921;DHT22;1975;49.356;6.816;2022-09-12T12:15:15;18.30;99.90
3921;DHT22;1975;49.356;6.816;2022-09-12T12:17:42;18.30;99.90
3921;DHT22;1975;49.356;6.816;2022-09-12T12:20:14;18.30;99.90
3921;DHT22;1975;49.356;6.816;2022-09-12T12:22:50;18.30;99.90
3921;DHT22;1975;49.356;6.816;2022-09-12T12:27:55;18.30;99.90
3921;DHT22;1975;49.356;6.816;2022-09-12T12:35:44;18.40;99.90
3921;DHT22;1975;49.356;6.816;2022-09-12T12:38:32;18.30;99.90
3921;DHT22;1975;49.356;6.816;2022-09-12T12:43:42;18.40;99.90
3921;DHT22;1975;49.356;6.816;2022-09-12T12:46:12;18.40;99.90
3921;DHT22;1975;49.356;6.816;2022-09-12T12:51:27;18.40;99.90
3921;DHT22;1975;49.356;6.816;2022-09-12T12:53:54;18.50;99.90
3921;DHT22;1975;49.356;6.816;2022-09-12T12:56:33;18.50;99.90
3921;DHT22;1975;49.356;6.816;2022-09-12T12:59:00;18.50;99.90
3921;DHT22;1975;49.356;6.816;2022-09-12T13:01:26;18.50;99.90
3921;DHT22;1975;49.356;6.816;2022-09-12T13:04:00;18.50;99.90
3921;DHT22;1975;49.356;6.816;2022-09-12T13:06:34;18.50;99.90
3921;DHT22;1975;49.356;6.816;2022-09-12T13:09:18;18.50;99.90
3921;DHT22;1975;49.356;6.816;2022-09-12T13:11:44;18.50;99.90
3921;DHT22;1975;49.356;6.816;2022-09-12T13:16:55;18.60;99.90
3921;DHT22;1975;49.356;6.816;2022-09-12T13:19:29;18.60;99.90
3921;DHT22;1975;49.356;6.816;2022-09-12T13:21:56;18.70;99.90
3921;DHT22;1975;49.356;6.816;2022-09-12T13:24:22;18.70;99.90
3921;DHT22;1975;49.356;6.816;2022-09-12T13:26:47;18.70;99.90
3921;DHT22;1975;49.356;6.816;2022-09-12T13:29:17;18.70;99.90
3921;DHT22;1975;49.356;6.816;2022-09-12T13:32:01;18.70;99.90
3921;DHT22;1975;49.356;6.816;2022-09-12T13:34:28;18.70;99.90
3921;DHT22;1975;49.356;6.816;2022-09-12T13:37:14;18.80;99.90
3921;DHT22;1975;49.356;6.816;2022-09-12T13:39:54;18.70;99.90
3921;DHT22;1975;49.356;6.816;2022-09-12T13:42:38;18.80;99.90
3921;DHT22;1975;49.356;6.816;2022-09-12T13:45:16;18.80;99.90
3921;DHT22;1975;49.356;6.816;2022-09-12T13:47:43;18.80;99.90
3921;DHT22;1975;49.356;6.816;2022-09-12T13:50:13;18.80;99.90
3921;DHT22;1975;49.356;6.816;2022-09-12T13:52:41;18.90;99.90
3921;DHT22;1975;49.356;6.816;2022-09-12T13:55:15;18.90;99.90
3921;DHT22;1975;49.356;6.816;2022-09-12T13:57:42;18.90;99.90
3921;DHT22;1975;49.356;6.816;2022-09-12T14:00:12;18.90;99.90
3921;DHT22;1975;49.356;6.816;2022-09-12T14:02:42;18.90;99.90
3921;DHT22;1975;49.356;6.816;2022-09-12T14:05:11;18.90;99.90
3921;DHT22;1975;49.356;6.816;2022-09-12T14:07:38;18.90;99.90
3921;DHT22;1975;49.356;6.816;2022-09-12T14:10:05;19.00;99.90
3921;DHT22;1975;49.356;6.816;2022-09-12T14:12:38;19.00;99.90
3921;DHT22;1975;49.356;6.816;2022-09-12T14:15:06;19.00;99.90
3921;DHT22;1975;49.356;6.816;2022-09-12T14:17:39;19.00;99.90
3921;DHT22;1975;49.356;6.816;2022-09-12T14:20:10;19.10;99.90
3921;DHT22;1975;49.356;6.816;2022-09-12T14:22:37;19.50;99.90
3921;DHT22;1975;49.356;6.816;2022-09-12T14:25:03;20.40;99.20
3921;DHT22;1975;49.356;6.816;2022-09-12T14:27:36;20.40;99.40
3921;DHT22;1975;49.356;6.816;2022-09-12T14:30:13;20.70;98.10
3921;DHT22;1975;49.356;6.816;2022-09-12T14:32:43;21.00;95.60
3921;DHT22;1975;49.356;6.816;2022-09-12T14:35:25;21.20;96.10
3921;DHT22;1975;49.356;6.816;2022-09-12T14:37:51;21.30;95.20
3921;DHT22;1975;49.356;6.816;2022-09-12T14:40:18;21.40;95.50
3921;DHT22;1975;49.356;6.816;2022-09-12T14:42:43;21.50;95.40
3921;DHT22;1975;49.356;6.816;2022-09-12T14:47:47;21.70;94.90
3921;DHT22;1975;49.356;6.816;2022-09-12T14:50:17;21.90;93.90
3921;DHT22;1975;49.356;6.816;2022-09-12T14:52:42;21.90;93.40
3921;DHT22;1975;49.356;6.816;2022-09-12T14:57:42;22.10;93.00
3921;DHT22;1975;49.356;6.816;2022-09-12T15:02:41;22.20;92.40
3921;DHT22;1975;49.356;6.816;2022-09-12T15:07:39;22.50;92.50
3921;DHT22;1975;49.356;6.816;2022-09-12T15:10:09;22.50;92.80
3921;DHT22;1975;49.356;6.816;2022-09-12T15:12:39;22.50;92.80
3921;DHT22;1975;49.356;6.816;2022-09-12T15:15:15;22.60;92.60
3921;DHT22;1975;49.356;6.816;2022-09-12T15:17:41;22.70;92.30
3921;DHT22;1975;49.356;6.816;2022-09-12T15:20:07;22.70;92.20
3921;DHT22;1975;49.356;6.816;2022-09-12T15:22:32;22.70;92.70
3921;DHT22;1975;49.356;6.816;2022-09-12T15:24:59;22.80;92.50
3921;DHT22;1975;49.356;6.816;2022-09-12T15:27:24;22.90;92.80
3921;DHT22;1975;49.356;6.816;2022-09-12T15:29:53;22.90;92.10
3921;DHT22;1975;49.356;6.816;2022-09-12T15:32:22;23.00;92.50
3921;DHT22;1975;49.356;6.816;2022-09-12T15:34:48;23.10;92.30
3921;DHT22;1975;49.356;6.816;2022-09-12T15:37:13;23.20;91.70
3921;DHT22;1975;49.356;6.816;2022-09-12T15:39:39;23.20;90.60
3921;DHT22;1975;49.356;6.816;2022-09-12T15:42:04;23.30;90.90
3921;DHT22;1975;49.356;6.816;2022-09-12T15:44:30;23.30;91.40
3921;DHT22;1975;49.356;6.816;2022-09-12T15:46:55;23.30;91.70
3921;DHT22;1975;49.356;6.816;2022-09-12T15:49:21;23.40;92.60
3921;DHT22;1975;49.356;6.816;2022-09-12T15:51:46;23.50;92.80
3921;DHT22;1975;49.356;6.816;2022-09-12T15:54:12;23.60;92.50
3921;DHT22;1975;49.356;6.816;2022-09-12T15:56:38;23.70;92.10
3921;DHT22;1975;49.356;6.816;2022-09-12T15:59:03;23.70;92.00
3921;DHT22;1975;49.356;6.816;2022-09-12T16:01:29;23.70;91.60
3921;DHT22;1975;49.356;6.816;2022-09-12T16:03:55;23.80;92.10
3921;DHT22;1975;49.356;6.816;2022-09-12T16:06:20;23.80;91.80
3921;DHT22;1975;49.356;6.816;2022-09-12T16:08:46;23.80;92.30
3921;DHT22;1975;49.356;6.816;2022-09-12T16:11:17;23.80;92.30
3921;DHT22;1975;49.356;6.816;2022-09-12T16:13:43;23.80;91.10
3921;DHT22;1975;49.356;6.816;2022-09-12T16:16:09;23.80;90.80
3921;DHT22;1975;49.356;6.816;2022-09-12T16:18:35;23.80;91.40
3921;DHT22;1975;49.356;6.816;2022-09-12T16:21:00;23.70;91.90
3921;DHT22;1975;49.356;6.816;2022-09-12T16:23:26;23.70;92.30
3921;DHT22;1975;49.356;6.816;2022-09-12T16:25:58;23.60;92.90
3921;DHT22;1975;49.356;6.816;2022-09-12T16:28:24;23.50;93.30
3921;DHT22;1975;49.356;6.816;2022-09-12T16:30:59;23.40;93.40
3921;DHT22;1975;49.356;6.816;2022-09-12T16:33:25;23.30;93.00
3921;DHT22;1975;49.356;6.816;2022-09-12T16:35:51;23.30;93.60
3921;DHT22;1975;49.356;6.816;2022-09-12T16:38:20;23.20;92.90
3921;DHT22;1975;49.356;6.816;2022-09-12T16:40:46;23.10;93.60
3921;DHT22;1975;49.356;6.816;2022-09-12T16:43:11;23.00;93.70
3921;DHT22;1975;49.356;6.816;2022-09-12T16:45:37;23.00;93.40
3921;DHT22;1975;49.356;6.816;2022-09-12T16:48:03;22.90;93.60
3921;DHT22;1975;49.356;6.816;2022-09-12T16:50:28;22.80;93.90
3921;DHT22;1975;49.356;6.816;2022-09-12T16:52:54;22.70;93.90
3921;DHT22;1975;49.356;6.816;2022-09-12T16:55:20;22.70;93.10
3921;DHT22;1975;49.356;6.816;2022-09-12T16:57:46;22.70;93.80
3921;DHT22;1975;49.356;6.816;2022-09-12T17:00:13;22.60;94.30
3921;DHT22;1975;49.356;6.816;2022-09-12T17:02:39;22.60;94.10
3921;DHT22;1975;49.356;6.816;2022-09-12T17:05:05;22.50;93.90
3921;DHT22;1975;49.356;6.816;2022-09-12T17:07:30;22.50;93.70
3921;DHT22;1975;49.356;6.816;2022-09-12T17:09:56;22.50;94.10
3921;DHT22;1975;49.356;6.816;2022-09-12T17:12:22;22.40;94.10
3921;DHT22;1975;49.356;6.816;2022-09-12T17:14:48;22.40;94.40
3921;DHT22;1975;49.356;6.816;2022-09-12T17:17:13;22.30;94.60
3921;DHT22;1975;49.356;6.816;2022-09-12T17:19:39;22.30;94.40
3921;DHT22;1975;49.356;6.816;2022-09-12T17:22:04;22.30;94.50
3921;DHT22;1975;49.356;6.816;2022-09-12T17:24:30;22.30;94.70
3921;DHT22;1975;49.356;6.816;2022-09-12T17:26:55;22.30;95.00
3921;DHT22;1975;49.356;6.816;2022-09-12T17:29:21;22.20;94.90
3921;DHT22;1975;49.356;6.816;2022-09-12T17:31:46;22.20;95.10
3921;DHT22;1975;49.356;6.816;2022-09-12T17:34:12;22.20;95.10
3921;DHT22;1975;49.356;6.816;2022-09-12T17:36:42;22.20;95.40
3921;DHT22;1975;49.356;6.816;2022-09-12T17:39:12;22.20;95.60
3921;DHT22;1975;49.356;6.816;2022-09-12T17:41:38;22.10;95.70
3921;DHT22;1975;49.356;6.816;2022-09-12T17:44:05;22.00;95.80
3921;DHT22;1975;49.356;6.816;2022-09-12T17:46:33;22.00;95.80
3921;DHT22;1975;49.356;6.816;2022-09-12T17:48:59;22.00;95.80
3921;DHT22;1975;49.356;6.816;2022-09-12T17:51:25;21.90;95.90
3921;DHT22;1975;49.356;6.816;2022-09-12T17:56:23;21.80;96.40
3921;DHT22;1975;49.356;6.816;2022-09-12T17:58:49;21.70;96.90
3921;DHT22;1975;49.356;6.816;2022-09-12T18:01:14;21.70;97.30
3921;DHT22;1975;49.356;6.816;2022-09-12T18:03:58;21.70;97.50
3921;DHT22;1975;49.356;6.816;2022-09-12T18:06:28;21.60;97.30
3921;DHT22;1975;49.356;6.816;2022-09-12T18:08:53;21.50;97.10
3921;DHT22;1975;49.356;6.816;2022-09-12T18:11:19;21.50;97.40
3921;DHT22;1975;49.356;6.816;2022-09-12T18:13:44;21.50;97.90
3921;DHT22;1975;49.356;6.816;2022-09-12T18:16:10;21.40;98.40
3921;DHT22;1975;49.356;6.816;2022-09-12T18:18:36;21.40;98.40
3921;DHT22;1975;49.356;6.816;2022-09-12T18:21:03;21.30;98.70
3921;DHT22;1975;49.356;6.816;2022-09-12T18:23:28;21.30;98.30
3921;DHT22;1975;49.356;6.816;2022-09-12T18:25:58;21.20;98.30